VIR130A KTPA-EGLL
Flight info
| Callsign | VIR130A |
|---|---|
| Flight time | N/A |
| Altitude | 37000 |
| Route | CROWD8 CROWD DCT CRMIN DCT MZULO DCT HESTA DCT ETECK M202 UKOKA/M081F370 DCT JNFOX DCT SOORY/M081F390 DCT 43N050W 46N040W 48N030W 49N020W DCT SOMAX DCT ATSUR DCT LULOX/N0465F390 DCT SIDDI DCT DAWLY DCT ELRIP DCT OTMET |
| Aircraft | A333/H-SDE3GHIJ2J3J5M1RVWXY/LB2D1 |
Departure
| Time | 2026-05-05 20:53 |
|---|---|
| Airport | Tampa International Airport (KTPA) |
Arrival
| Time | N/A |
|---|---|
| Airport | London Heathrow Airport (EGLL) |
| Time | Latitude | Longitude | Altitude | Speed | Heading |
|---|---|---|---|---|---|
| 2026-05-05 20:04 | 27.97665 | -82.53869 | 39 ft | 0 kts | 45° |
| 2026-05-05 20:43 | 27.97660 | -82.53876 | 44 ft | 3 kts | 45° |
| 2026-05-05 20:43 | 27.97641 | -82.53897 | 42 ft | 5 kts | 42° |
| 2026-05-05 20:43 | 27.97620 | -82.53910 | 44 ft | 5 kts | 354° |
| 2026-05-05 20:43 | 27.97598 | -82.53899 | 45 ft | 7 kts | 308° |
| 2026-05-05 20:44 | 27.97596 | -82.53896 | 45 ft | 8 kts | 307° |
| 2026-05-05 20:46 | 27.97598 | -82.53900 | 45 ft | 3 kts | 304° |
| 2026-05-05 20:46 | 27.97605 | -82.53931 | 48 ft | 6 kts | 281° |
| 2026-05-05 20:46 | 27.97594 | -82.53984 | 45 ft | 9 kts | 251° |
| 2026-05-05 20:47 | 27.97610 | -82.54058 | 46 ft | 11 kts | 319° |
| 2026-05-05 20:47 | 27.97699 | -82.54065 | 47 ft | 16 kts | 2° |
| 2026-05-05 20:47 | 27.97820 | -82.54061 | 46 ft | 17 kts | 1° |
| 2026-05-05 20:47 | 27.97941 | -82.54059 | 49 ft | 17 kts | 1° |
| 2026-05-05 20:48 | 27.98062 | -82.54053 | 44 ft | 18 kts | 2° |
| 2026-05-05 20:48 | 27.98184 | -82.54049 | 47 ft | 18 kts | 1° |
| 2026-05-05 20:48 | 27.98306 | -82.54045 | 45 ft | 17 kts | 2° |
| 2026-05-05 20:48 | 27.98428 | -82.54042 | 47 ft | 18 kts | 1° |
| 2026-05-05 20:49 | 27.98550 | -82.54038 | 45 ft | 18 kts | 2° |
| 2026-05-05 20:49 | 27.98674 | -82.54034 | 47 ft | 18 kts | 2° |
| 2026-05-05 20:49 | 27.98799 | -82.54029 | 47 ft | 18 kts | 2° |
| 2026-05-05 20:49 | 27.98928 | -82.54024 | 46 ft | 19 kts | 2° |
| 2026-05-05 20:50 | 27.99059 | -82.54019 | 44 ft | 19 kts | 1° |
| 2026-05-05 20:50 | 27.99195 | -82.54015 | 47 ft | 20 kts | 1° |
| 2026-05-05 20:50 | 27.99275 | -82.54012 | 45 ft | 7 kts | 2° |
| 2026-05-05 20:50 | 27.99324 | -82.54018 | 49 ft | 7 kts | 342° |
| 2026-05-05 20:51 | 27.99349 | -82.54053 | 44 ft | 5 kts | 288° |
| 2026-05-05 20:51 | 27.99346 | -82.54092 | 49 ft | 5 kts | 255° |
| 2026-05-05 20:51 | 27.99327 | -82.54123 | 49 ft | 6 kts | 226° |
| 2026-05-05 20:51 | 27.99285 | -82.54135 | 45 ft | 5 kts | 184° |
| 2026-05-05 20:52 | 27.99248 | -82.54137 | 43 ft | 8 kts | 182° |
| 2026-05-05 20:52 | 27.99029 | -82.54145 | 45 ft | 66 kts | 182° |
| 2026-05-05 20:52 | 27.98327 | -82.54169 | 51 ft | 134 kts | 181° |
| 2026-05-05 20:52 | 27.97188 | -82.54203 | 87 ft | 190 kts | 182° |
| 2026-05-05 20:53 | 27.95807 | -82.54192 | 696 ft | 207 kts | 180° |
| 2026-05-05 20:53 | 27.94418 | -82.54338 | 1796 ft | 198 kts | 193° |
| 2026-05-05 20:53 | 27.93060 | -82.54819 | 2432 ft | 212 kts | 198° |
| 2026-05-05 20:53 | 27.91641 | -82.55341 | 2877 ft | 218 kts | 197° |
| 2026-05-05 20:54 | 27.90110 | -82.55883 | 3296 ft | 242 kts | 196° |
| 2026-05-05 20:54 | 27.88451 | -82.56483 | 3755 ft | 256 kts | 197° |
| 2026-05-05 20:54 | 27.86715 | -82.57120 | 4029 ft | 270 kts | 197° |
| 2026-05-05 20:54 | 27.84958 | -82.57769 | 3987 ft | 266 kts | 197° |
| 2026-05-05 20:55 | 27.83176 | -82.58428 | 3990 ft | 272 kts | 197° |
| 2026-05-05 20:55 | 27.81388 | -82.59079 | 3992 ft | 269 kts | 196° |
| 2026-05-05 20:55 | 27.79601 | -82.59732 | 3985 ft | 270 kts | 197° |
| 2026-05-05 20:55 | 27.77823 | -82.60400 | 3984 ft | 269 kts | 197° |
| 2026-05-05 20:56 | 27.76008 | -82.60837 | 3989 ft | 267 kts | 176° |
| 2026-05-05 20:56 | 27.74258 | -82.60235 | 4010 ft | 265 kts | 142° |
| 2026-05-05 20:56 | 27.73029 | -82.58753 | 4440 ft | 262 kts | 122° |
| 2026-05-05 20:56 | 27.72422 | -82.56816 | 4973 ft | 261 kts | 96° |
| 2026-05-05 20:57 | 27.72306 | -82.54733 | 5470 ft | 271 kts | 95° |
| 2026-05-05 20:57 | 27.72073 | -82.52634 | 5959 ft | 271 kts | 99° |
| 2026-05-05 20:57 | 27.71792 | -82.50495 | 6471 ft | 277 kts | 96° |
| 2026-05-05 20:57 | 27.71662 | -82.48319 | 6971 ft | 282 kts | 93° |
| 2026-05-05 20:58 | 27.71521 | -82.46085 | 7501 ft | 288 kts | 96° |
| 2026-05-05 20:58 | 27.71244 | -82.43833 | 8043 ft | 292 kts | 98° |
| 2026-05-05 20:58 | 27.70988 | -82.41543 | 8591 ft | 296 kts | 95° |
| 2026-05-05 20:58 | 27.70821 | -82.39208 | 9153 ft | 301 kts | 95° |
| 2026-05-05 20:59 | 27.70624 | -82.36836 | 9726 ft | 306 kts | 96° |
| 2026-05-05 20:59 | 27.70362 | -82.34431 | 10269 ft | 311 kts | 97° |
| 2026-05-05 20:59 | 27.70117 | -82.31994 | 10788 ft | 316 kts | 95° |
| 2026-05-05 20:59 | 27.69911 | -82.29495 | 11292 ft | 325 kts | 95° |
| 2026-05-05 21:00 | 27.69668 | -82.26905 | 11637 ft | 337 kts | 96° |
| 2026-05-05 21:00 | 27.69393 | -82.24287 | 11975 ft | 345 kts | 95° |
| 2026-05-05 21:00 | 27.69145 | -82.21556 | 12327 ft | 355 kts | 94° |
| 2026-05-05 21:00 | 27.68898 | -82.18744 | 12689 ft | 365 kts | 95° |
| 2026-05-05 21:01 | 27.68604 | -82.15867 | 13053 ft | 375 kts | 96° |
| 2026-05-05 21:01 | 27.68309 | -82.12907 | 13401 ft | 385 kts | 94° |
| 2026-05-05 21:01 | 27.68048 | -82.09866 | 13775 ft | 394 kts | 94° |
| 2026-05-05 21:01 | 27.67755 | -82.06756 | 14109 ft | 403 kts | 95° |
| 2026-05-05 21:02 | 27.67419 | -82.03597 | 14457 ft | 407 kts | 95° |
| 2026-05-05 21:02 | 27.67109 | -82.00404 | 14935 ft | 412 kts | 94° |
| 2026-05-05 21:02 | 27.67144 | -81.97172 | 15390 ft | 413 kts | 76° |
| 2026-05-05 21:02 | 27.68126 | -81.94158 | 15894 ft | 410 kts | 57° |
| 2026-05-05 21:03 | 27.69753 | -81.91539 | 16395 ft | 409 kts | 48° |
| 2026-05-05 21:03 | 27.71513 | -81.88991 | 16905 ft | 413 kts | 48° |
| 2026-05-05 21:03 | 27.73248 | -81.86401 | 17418 ft | 416 kts | 49° |
| 2026-05-05 21:03 | 27.74996 | -81.83782 | 17935 ft | 419 kts | 48° |
| 2026-05-05 21:04 | 27.76777 | -81.81167 | 18439 ft | 422 kts | 48° |
| 2026-05-05 21:04 | 27.78564 | -81.78519 | 18887 ft | 426 kts | 48° |
| 2026-05-05 21:04 | 27.80344 | -81.75838 | 19485 ft | 429 kts | 49° |
| 2026-05-05 21:04 | 27.82155 | -81.73130 | 20081 ft | 433 kts | 48° |
| 2026-05-05 21:05 | 27.83996 | -81.70412 | 20636 ft | 439 kts | 48° |
| 2026-05-05 21:05 | 27.85849 | -81.67647 | 21218 ft | 444 kts | 48° |
| 2026-05-05 21:05 | 27.87713 | -81.64841 | 21767 ft | 449 kts | 48° |
| 2026-05-05 21:05 | 27.89610 | -81.62011 | 22309 ft | 454 kts | 47° |
| 2026-05-05 21:06 | 27.91532 | -81.59154 | 22849 ft | 459 kts | 47° |
| 2026-05-05 21:06 | 27.93460 | -81.56257 | 23371 ft | 464 kts | 48° |
| 2026-05-05 21:06 | 27.95410 | -81.53326 | 23833 ft | 468 kts | 47° |
| 2026-05-05 21:06 | 27.97380 | -81.50385 | 24332 ft | 470 kts | 47° |
| 2026-05-05 21:07 | 27.99354 | -81.47429 | 24836 ft | 472 kts | 47° |
| 2026-05-05 21:07 | 28.01334 | -81.44448 | 25313 ft | 475 kts | 47° |
| 2026-05-05 21:07 | 28.03325 | -81.41457 | 25788 ft | 477 kts | 47° |
| 2026-05-05 21:07 | 28.05296 | -81.38506 | 26251 ft | 480 kts | 47° |
| 2026-05-05 21:08 | 28.07185 | -81.35362 | 26661 ft | 489 kts | 56° |
| 2026-05-05 21:08 | 28.08694 | -81.31883 | 27071 ft | 495 kts | 59° |
| 2026-05-05 21:08 | 28.10161 | -81.28408 | 27497 ft | 496 kts | 58° |
| 2026-05-05 21:08 | 28.11743 | -81.24929 | 27958 ft | 497 kts | 56° |
| 2026-05-05 21:09 | 28.13341 | -81.21442 | 28365 ft | 501 kts | 57° |
| 2026-05-05 21:09 | 28.14873 | -81.17879 | 28795 ft | 505 kts | 58° |
| 2026-05-05 21:09 | 28.15385 | -81.16666 | 28928 ft | 506 kts | 58° |
| 2026-05-05 21:10 | 28.16860 | -81.13258 | 29327 ft | 507 kts | 57° |
| 2026-05-05 21:10 | 28.18477 | -81.09696 | 29737 ft | 509 kts | 56° |
| 2026-05-05 21:10 | 28.20082 | -81.06102 | 30121 ft | 513 kts | 57° |
| 2026-05-05 21:10 | 28.21647 | -81.02446 | 30511 ft | 515 kts | 58° |
| 2026-05-05 21:11 | 28.23225 | -80.98798 | 30993 ft | 513 kts | 56° |
| 2026-05-05 21:11 | 28.24838 | -80.95202 | 31449 ft | 511 kts | 56° |
| 2026-05-05 21:11 | 28.26436 | -80.91600 | 31910 ft | 511 kts | 56° |
| 2026-05-05 21:11 | 28.27991 | -80.87977 | 32356 ft | 510 kts | 57° |
| 2026-05-05 21:12 | 28.29554 | -80.84368 | 32798 ft | 509 kts | 56° |
| 2026-05-05 21:12 | 28.31146 | -80.80791 | 33250 ft | 507 kts | 55° |
| 2026-05-05 21:12 | 28.32726 | -80.77200 | 33704 ft | 507 kts | 56° |
| 2026-05-05 21:12 | 28.34266 | -80.73609 | 34127 ft | 506 kts | 56° |
| 2026-05-05 21:13 | 28.35823 | -80.70020 | 34476 ft | 505 kts | 55° |
| 2026-05-05 21:13 | 28.37395 | -80.66463 | 34811 ft | 504 kts | 54° |
| 2026-05-05 21:13 | 28.38954 | -80.62892 | 35146 ft | 505 kts | 55° |
| 2026-05-05 21:13 | 28.40492 | -80.59305 | 35481 ft | 505 kts | 55° |
| 2026-05-05 21:14 | 28.42040 | -80.55734 | 35807 ft | 504 kts | 54° |
| 2026-05-05 21:14 | 28.43605 | -80.52174 | 36136 ft | 503 kts | 54° |
| 2026-05-05 21:14 | 28.45151 | -80.48608 | 36444 ft | 503 kts | 54° |
| 2026-05-05 21:14 | 28.46681 | -80.45033 | 36761 ft | 503 kts | 54° |
| 2026-05-05 21:15 | 28.48195 | -80.41541 | 37044 ft | 502 kts | 54° |
| 2026-05-05 21:15 | 28.49763 | -80.37964 | 37026 ft | 509 kts | 54° |
| 2026-05-05 21:15 | 28.52863 | -80.30718 | 37043 ft | 508 kts | 54° |
| 2026-05-05 21:16 | 28.55744 | -80.23337 | 37055 ft | 512 kts | 57° |
| 2026-05-05 21:16 | 28.58597 | -80.15903 | 37070 ft | 512 kts | 57° |
| 2026-05-05 21:17 | 28.61397 | -80.08435 | 37064 ft | 513 kts | 57° |
| 2026-05-05 21:17 | 28.64233 | -80.00996 | 37079 ft | 512 kts | 57° |
| 2026-05-05 21:18 | 28.67027 | -79.93524 | 37076 ft | 513 kts | 57° |
| 2026-05-05 21:18 | 28.69857 | -79.86068 | 37077 ft | 513 kts | 57° |
| 2026-05-05 21:19 | 28.72644 | -79.78585 | 37072 ft | 512 kts | 57° |
| 2026-05-05 21:19 | 28.75461 | -79.71133 | 37077 ft | 513 kts | 58° |
| 2026-05-05 21:20 | 28.78243 | -79.63638 | 37080 ft | 513 kts | 57° |
| 2026-05-05 21:20 | 28.81111 | -79.56223 | 37074 ft | 504 kts | 50° |
| 2026-05-05 21:21 | 28.83034 | -79.53045 | 37137 ft | 489 kts | 42° |
| 2026-05-05 21:21 | 28.85093 | -79.49925 | 37075 ft | 494 kts | 44° |
| 2026-05-05 21:21 | 28.88978 | -79.43527 | 37076 ft | 492 kts | 43° |
| 2026-05-05 21:22 | 28.93087 | -79.37317 | 37082 ft | 492 kts | 44° |
| 2026-05-05 21:22 | 28.97012 | -79.30889 | 37085 ft | 492 kts | 44° |
| 2026-05-05 21:23 | 29.01095 | -79.24633 | 37081 ft | 492 kts | 44° |
| 2026-05-05 21:23 | 29.05035 | -79.18219 | 37083 ft | 492 kts | 44° |
| 2026-05-05 21:24 | 29.09097 | -79.11930 | 37088 ft | 492 kts | 44° |
| 2026-05-05 21:24 | 29.13046 | -79.05522 | 37088 ft | 492 kts | 44° |
| 2026-05-05 21:25 | 29.17091 | -78.99205 | 37074 ft | 492 kts | 44° |
| 2026-05-05 21:25 | 29.21022 | -78.92838 | 37085 ft | 492 kts | 44° |
| 2026-05-05 21:26 | 29.25047 | -78.86507 | 37085 ft | 492 kts | 44° |
| 2026-05-05 21:26 | 29.29014 | -78.80084 | 37090 ft | 493 kts | 44° |
| 2026-05-05 21:27 | 29.33032 | -78.73726 | 37094 ft | 492 kts | 44° |
| 2026-05-05 21:27 | 29.36990 | -78.67316 | 37089 ft | 493 kts | 44° |
| 2026-05-05 21:28 | 29.40999 | -78.60938 | 37091 ft | 493 kts | 45° |
| 2026-05-05 21:28 | 29.44937 | -78.54551 | 37095 ft | 493 kts | 44° |
| 2026-05-05 21:29 | 29.49147 | -78.48446 | 37105 ft | 472 kts | 30° |
| 2026-05-05 21:29 | 29.54387 | -78.44107 | 37085 ft | 463 kts | 24° |
| 2026-05-05 21:30 | 29.58758 | -78.40552 | 37096 ft | 462 kts | 24° |
| 2026-05-05 21:30 | 29.64076 | -78.36432 | 37097 ft | 461 kts | 24° |
| 2026-05-05 21:31 | 29.69344 | -78.32178 | 37092 ft | 462 kts | 24° |
| 2026-05-05 21:31 | 29.74650 | -78.28029 | 37090 ft | 461 kts | 24° |
| 2026-05-05 21:32 | 29.79917 | -78.23785 | 37088 ft | 462 kts | 24° |
| 2026-05-05 21:32 | 29.85212 | -78.19617 | 37095 ft | 461 kts | 24° |
| 2026-05-05 21:33 | 29.90474 | -78.15383 | 37095 ft | 461 kts | 24° |
| 2026-05-05 21:33 | 29.95755 | -78.11199 | 37087 ft | 460 kts | 24° |
| 2026-05-05 21:34 | 30.01007 | -78.06976 | 37092 ft | 460 kts | 24° |
| 2026-05-05 21:34 | 30.06232 | -78.02813 | 37098 ft | 460 kts | 24° |
| 2026-05-05 21:35 | 30.11479 | -77.98595 | 37099 ft | 459 kts | 24° |
| 2026-05-05 21:35 | 30.16729 | -77.94390 | 37085 ft | 459 kts | 24° |
| 2026-05-05 21:36 | 30.21978 | -77.90170 | 37094 ft | 459 kts | 24° |
| 2026-05-05 21:36 | 30.27221 | -77.85948 | 37098 ft | 460 kts | 24° |
| 2026-05-05 21:37 | 30.32472 | -77.81724 | 37101 ft | 459 kts | 24° |
| 2026-05-05 21:37 | 30.37700 | -77.77450 | 37093 ft | 464 kts | 28° |
| 2026-05-05 21:38 | 30.40012 | -77.74738 | 37141 ft | 483 kts | 41° |
| 2026-05-05 21:38 | 30.41870 | -77.71402 | 37119 ft | 502 kts | 54° |
| 2026-05-05 21:38 | 30.44433 | -77.63729 | 37090 ft | 512 kts | 60° |
| 2026-05-05 21:39 | 30.46951 | -77.56027 | 37096 ft | 511 kts | 60° |
| 2026-05-05 21:39 | 30.49387 | -77.48330 | 37107 ft | 511 kts | 60° |
| 2026-05-05 21:40 | 30.51901 | -77.40619 | 37107 ft | 512 kts | 60° |
| 2026-05-05 21:40 | 30.54353 | -77.32852 | 37111 ft | 512 kts | 60° |
| 2026-05-05 21:41 | 30.56861 | -77.25105 | 37110 ft | 512 kts | 60° |
| 2026-05-05 21:41 | 30.59294 | -77.17378 | 37109 ft | 513 kts | 60° |
| 2026-05-05 21:42 | 30.61787 | -77.09625 | 37104 ft | 513 kts | 61° |
| 2026-05-05 21:42 | 30.64236 | -77.01836 | 37115 ft | 512 kts | 60° |
| 2026-05-05 21:43 | 30.65785 | -76.98198 | 37145 ft | 492 kts | 46° |
| 2026-05-05 21:43 | 30.67695 | -76.94910 | 37097 ft | 494 kts | 46° |
| 2026-05-05 21:43 | 30.71305 | -76.88091 | 37108 ft | 495 kts | 49° |
| 2026-05-05 21:44 | 30.75071 | -76.81446 | 37118 ft | 491 kts | 46° |
| 2026-05-05 21:44 | 30.78688 | -76.74655 | 37118 ft | 494 kts | 49° |
| 2026-05-05 21:45 | 30.82394 | -76.68024 | 37126 ft | 490 kts | 47° |
| 2026-05-05 21:45 | 30.86019 | -76.61257 | 37119 ft | 494 kts | 49° |
| 2026-05-05 21:46 | 30.89725 | -76.54556 | 37116 ft | 492 kts | 47° |
| 2026-05-05 21:46 | 30.93358 | -76.47785 | 37125 ft | 493 kts | 49° |
| 2026-05-05 21:47 | 30.97047 | -76.41066 | 37119 ft | 491 kts | 47° |
| 2026-05-05 21:47 | 31.00678 | -76.34295 | 37115 ft | 493 kts | 49° |
| 2026-05-05 21:48 | 31.04351 | -76.27566 | 37123 ft | 491 kts | 47° |
| 2026-05-05 21:48 | 31.07983 | -76.20782 | 37130 ft | 493 kts | 49° |
| 2026-05-05 21:49 | 31.11646 | -76.14041 | 37128 ft | 491 kts | 48° |
| 2026-05-05 21:49 | 31.15266 | -76.07259 | 37130 ft | 492 kts | 49° |
| 2026-05-05 21:50 | 31.18894 | -76.00556 | 37115 ft | 491 kts | 48° |
| 2026-05-05 21:50 | 31.22507 | -75.93768 | 37123 ft | 491 kts | 49° |
| 2026-05-05 21:51 | 31.26145 | -75.87021 | 37133 ft | 490 kts | 48° |
| 2026-05-05 21:51 | 31.29736 | -75.80251 | 37137 ft | 489 kts | 48° |
| 2026-05-05 21:52 | 31.35149 | -75.70128 | 37128 ft | 491 kts | 49° |
| 2026-05-05 21:53 | 31.38763 | -75.63334 | 37363 ft | 492 kts | 48° |
| 2026-05-05 21:53 | 31.40578 | -75.59935 | 37651 ft | 493 kts | 48° |
| 2026-05-05 21:53 | 31.42382 | -75.56513 | 37835 ft | 495 kts | 49° |
| 2026-05-05 21:53 | 31.44200 | -75.53075 | 38043 ft | 496 kts | 48° |
| 2026-05-05 21:54 | 31.46007 | -75.49688 | 38251 ft | 497 kts | 48° |
| 2026-05-05 21:54 | 31.47836 | -75.46237 | 38434 ft | 499 kts | 49° |
| 2026-05-05 21:54 | 31.49660 | -75.42765 | 38628 ft | 501 kts | 49° |
| 2026-05-05 21:54 | 31.51497 | -75.39291 | 38829 ft | 501 kts | 48° |
| 2026-05-05 21:55 | 31.53340 | -75.35822 | 39016 ft | 502 kts | 48° |
| 2026-05-05 21:55 | 31.55174 | -75.32339 | 39165 ft | 503 kts | 49° |
| 2026-05-05 21:55 | 31.57017 | -75.28827 | 39135 ft | 506 kts | 49° |
| 2026-05-05 21:56 | 31.60699 | -75.21839 | 39138 ft | 501 kts | 49° |
| 2026-05-05 21:56 | 31.64351 | -75.14883 | 39142 ft | 500 kts | 49° |
| 2026-05-05 21:57 | 31.68001 | -75.07930 | 39146 ft | 500 kts | 49° |
| 2026-05-05 21:57 | 31.71641 | -75.00970 | 39141 ft | 500 kts | 49° |
| 2026-05-05 21:58 | 31.75283 | -74.94002 | 39142 ft | 500 kts | 49° |
| 2026-05-05 21:58 | 31.78908 | -74.87055 | 39140 ft | 498 kts | 49° |
| 2026-05-05 21:59 | 31.82497 | -74.80152 | 39147 ft | 498 kts | 50° |
| 2026-05-05 21:59 | 31.86114 | -74.73206 | 39149 ft | 498 kts | 50° |
| 2026-05-05 22:00 | 31.89715 | -74.66244 | 39145 ft | 497 kts | 50° |
| 2026-05-05 22:00 | 31.93313 | -74.59314 | 39132 ft | 496 kts | 50° |
| 2026-05-05 22:01 | 31.96898 | -74.52414 | 39153 ft | 494 kts | 50° |
| 2026-05-05 22:01 | 32.00442 | -74.45445 | 39147 ft | 496 kts | 50° |
| 2026-05-05 22:02 | 32.04031 | -74.38576 | 39147 ft | 495 kts | 50° |
| 2026-05-05 22:02 | 32.07595 | -74.31548 | 39154 ft | 496 kts | 51° |
| 2026-05-05 22:03 | 32.11171 | -74.24667 | 39156 ft | 496 kts | 51° |
| 2026-05-05 22:03 | 32.14705 | -74.17679 | 39156 ft | 495 kts | 51° |
| 2026-05-05 22:04 | 32.18292 | -74.10743 | 39152 ft | 496 kts | 51° |
| 2026-05-05 22:04 | 32.21818 | -74.03754 | 39150 ft | 495 kts | 51° |
| 2026-05-05 22:05 | 32.25393 | -73.96808 | 39159 ft | 495 kts | 51° |
| 2026-05-05 22:05 | 32.28913 | -73.89815 | 39156 ft | 494 kts | 51° |
| 2026-05-05 22:06 | 32.32483 | -73.82842 | 39162 ft | 496 kts | 52° |
| 2026-05-05 22:06 | 32.35986 | -73.75865 | 39164 ft | 496 kts | 52° |
| 2026-05-05 22:07 | 32.39573 | -73.68821 | 39169 ft | 498 kts | 53° |
| 2026-05-05 22:07 | 32.43083 | -73.61815 | 39162 ft | 497 kts | 52° |
| 2026-05-05 22:08 | 32.46651 | -73.54771 | 39166 ft | 499 kts | 53° |
| 2026-05-05 22:08 | 32.50191 | -73.47694 | 39160 ft | 499 kts | 53° |
| 2026-05-05 22:09 | 32.53753 | -73.40620 | 39161 ft | 501 kts | 54° |
| 2026-05-05 22:09 | 32.57298 | -73.33519 | 39171 ft | 500 kts | 53° |
| 2026-05-05 22:10 | 32.60855 | -73.26413 | 39166 ft | 501 kts | 54° |
| 2026-05-05 22:10 | 32.64399 | -73.19303 | 39170 ft | 501 kts | 54° |
| 2026-05-05 22:11 | 32.67951 | -73.12165 | 39171 ft | 502 kts | 55° |
| 2026-05-05 22:11 | 32.71475 | -73.05081 | 39169 ft | 502 kts | 54° |
| 2026-05-05 22:12 | 32.75016 | -72.97925 | 39168 ft | 503 kts | 55° |
| 2026-05-05 22:12 | 32.78572 | -72.90759 | 39173 ft | 503 kts | 55° |
| 2026-05-05 22:13 | 32.82113 | -72.83568 | 39174 ft | 504 kts | 56° |
| 2026-05-05 22:13 | 32.85670 | -72.76379 | 39176 ft | 505 kts | 55° |
| 2026-05-05 22:14 | 32.89215 | -72.69146 | 39177 ft | 506 kts | 56° |
| 2026-05-05 22:14 | 32.92775 | -72.61925 | 39178 ft | 506 kts | 56° |
| 2026-05-05 22:15 | 32.96322 | -72.54657 | 39162 ft | 507 kts | 56° |
| 2026-05-05 22:15 | 32.99883 | -72.47406 | 39169 ft | 507 kts | 56° |
| 2026-05-05 22:16 | 33.03428 | -72.40116 | 39180 ft | 508 kts | 56° |
| 2026-05-05 22:16 | 33.06989 | -72.32832 | 39177 ft | 509 kts | 56° |
| 2026-05-05 22:17 | 33.10537 | -72.25511 | 39173 ft | 510 kts | 57° |
| 2026-05-05 22:17 | 33.14098 | -72.18191 | 39182 ft | 510 kts | 57° |
| 2026-05-05 22:18 | 33.17048 | -72.12081 | 39180 ft | 511 kts | 57° |
| 2026-05-05 22:18 | 33.20604 | -72.04742 | 39190 ft | 511 kts | 57° |
| 2026-05-05 22:19 | 33.24732 | -71.96176 | 39187 ft | 512 kts | 57° |
| 2026-05-05 22:19 | 33.27713 | -71.89988 | 39193 ft | 512 kts | 57° |
| 2026-05-05 22:20 | 33.31266 | -71.82587 | 39191 ft | 514 kts | 57° |
| 2026-05-05 22:20 | 33.34824 | -71.75166 | 39188 ft | 514 kts | 58° |
| 2026-05-05 22:21 | 33.38388 | -71.67722 | 39192 ft | 516 kts | 58° |
| 2026-05-05 22:21 | 33.41924 | -71.60311 | 39195 ft | 516 kts | 58° |
| 2026-05-05 22:22 | 33.45472 | -71.52877 | 39191 ft | 502 kts | 57° |
| 2026-05-05 22:22 | 33.47178 | -71.49291 | 39176 ft | 490 kts | 58° |
| 2026-05-05 22:22 | 33.48850 | -71.45745 | 39178 ft | 489 kts | 58° |
| 2026-05-05 22:23 | 33.52243 | -71.38638 | 39194 ft | 493 kts | 58° |
| 2026-05-05 22:23 | 33.55617 | -71.31469 | 39204 ft | 494 kts | 58° |
| 2026-05-05 22:24 | 33.59028 | -71.24302 | 39201 ft | 495 kts | 58° |
| 2026-05-05 22:24 | 33.62400 | -71.17105 | 39201 ft | 495 kts | 58° |
| 2026-05-05 22:25 | 33.65781 | -71.09970 | 39194 ft | 495 kts | 58° |
| 2026-05-05 22:25 | 33.69186 | -71.02780 | 39201 ft | 494 kts | 55° |
| 2026-05-05 22:26 | 33.72871 | -70.95793 | 39207 ft | 496 kts | 57° |
| 2026-05-05 22:26 | 33.76477 | -70.88704 | 39208 ft | 497 kts | 55° |
| 2026-05-05 22:27 | 33.80180 | -70.81690 | 39206 ft | 498 kts | 57° |
| 2026-05-05 22:27 | 33.83794 | -70.74582 | 39208 ft | 497 kts | 55° |
| 2026-05-05 22:28 | 33.87464 | -70.67584 | 39209 ft | 498 kts | 57° |
| 2026-05-05 22:28 | 33.91082 | -70.60462 | 39205 ft | 498 kts | 56° |
| 2026-05-05 22:29 | 33.94765 | -70.53388 | 39207 ft | 499 kts | 57° |
| 2026-05-05 22:29 | 33.98385 | -70.46255 | 39215 ft | 499 kts | 56° |
| 2026-05-05 22:30 | 34.02054 | -70.39159 | 39212 ft | 499 kts | 57° |
| 2026-05-05 22:30 | 34.05674 | -70.32021 | 39212 ft | 499 kts | 56° |
| 2026-05-05 22:31 | 34.09329 | -70.24902 | 39219 ft | 499 kts | 57° |
| 2026-05-05 22:31 | 34.12933 | -70.17786 | 39216 ft | 500 kts | 57° |
| 2026-05-05 22:32 | 34.16587 | -70.10622 | 39215 ft | 501 kts | 58° |
| 2026-05-05 22:32 | 34.20218 | -70.03443 | 39212 ft | 501 kts | 57° |
| 2026-05-05 22:33 | 34.23861 | -69.96255 | 39220 ft | 501 kts | 58° |
| 2026-05-05 22:33 | 34.27505 | -69.89038 | 39221 ft | 502 kts | 57° |
| 2026-05-05 22:34 | 34.31134 | -69.81831 | 39220 ft | 502 kts | 58° |
| 2026-05-05 22:34 | 34.34752 | -69.74652 | 39221 ft | 502 kts | 57° |
| 2026-05-05 22:35 | 34.38375 | -69.67415 | 39217 ft | 503 kts | 58° |
| 2026-05-05 22:35 | 34.42009 | -69.60186 | 39223 ft | 503 kts | 58° |
| 2026-05-05 22:36 | 34.45625 | -69.52923 | 39224 ft | 504 kts | 58° |
| 2026-05-05 22:36 | 34.49263 | -69.45665 | 39221 ft | 504 kts | 58° |
| 2026-05-05 22:37 | 34.52880 | -69.38364 | 39223 ft | 504 kts | 58° |
| 2026-05-05 22:37 | 34.56523 | -69.31071 | 39226 ft | 505 kts | 58° |
| 2026-05-05 22:38 | 34.60130 | -69.23757 | 39226 ft | 505 kts | 58° |
| 2026-05-05 22:38 | 34.63743 | -69.16493 | 39229 ft | 506 kts | 58° |
| 2026-05-05 22:39 | 34.67353 | -69.09147 | 39224 ft | 506 kts | 58° |
| 2026-05-05 22:39 | 34.70984 | -69.01808 | 39228 ft | 507 kts | 59° |
| 2026-05-05 22:40 | 34.74600 | -68.94426 | 39231 ft | 508 kts | 59° |
| 2026-05-05 22:40 | 34.78233 | -68.87049 | 39232 ft | 508 kts | 59° |
| 2026-05-05 22:41 | 34.81840 | -68.79661 | 39228 ft | 508 kts | 59° |
| 2026-05-05 22:41 | 34.85458 | -68.72270 | 39231 ft | 509 kts | 59° |
| 2026-05-05 22:42 | 34.89069 | -68.64855 | 39231 ft | 509 kts | 59° |
| 2026-05-05 22:42 | 34.92658 | -68.57481 | 39235 ft | 509 kts | 59° |
| 2026-05-05 22:43 | 34.96266 | -68.50055 | 39232 ft | 509 kts | 59° |
| 2026-05-05 22:43 | 34.99871 | -68.42604 | 39237 ft | 510 kts | 59° |
| 2026-05-05 22:44 | 35.03483 | -68.35147 | 39236 ft | 510 kts | 59° |
| 2026-05-05 22:44 | 35.07077 | -68.27676 | 39241 ft | 511 kts | 59° |
| 2026-05-05 22:45 | 35.10685 | -68.20205 | 39236 ft | 510 kts | 59° |
| 2026-05-05 22:45 | 35.14268 | -68.12720 | 39241 ft | 510 kts | 60° |
| 2026-05-05 22:46 | 35.17871 | -68.05227 | 39239 ft | 511 kts | 60° |
| 2026-05-05 22:46 | 35.21459 | -67.97700 | 39240 ft | 512 kts | 60° |
| 2026-05-05 22:47 | 35.25057 | -67.90184 | 39244 ft | 512 kts | 60° |
| 2026-05-05 22:47 | 35.28617 | -67.82686 | 39240 ft | 513 kts | 60° |
| 2026-05-05 22:48 | 35.32209 | -67.75145 | 39240 ft | 513 kts | 60° |
| 2026-05-05 22:48 | 35.35791 | -67.67574 | 39241 ft | 513 kts | 60° |
| 2026-05-05 22:49 | 35.39376 | -67.60005 | 39240 ft | 513 kts | 60° |
| 2026-05-05 22:49 | 35.42953 | -67.52421 | 39245 ft | 513 kts | 60° |
| 2026-05-05 22:50 | 35.46526 | -67.44835 | 39248 ft | 513 kts | 60° |
| 2026-05-05 22:50 | 35.50096 | -67.37245 | 39246 ft | 514 kts | 60° |
| 2026-05-05 22:51 | 35.53639 | -67.29676 | 39247 ft | 515 kts | 60° |
| 2026-05-05 22:51 | 35.57214 | -67.22051 | 39251 ft | 515 kts | 60° |
| 2026-05-05 22:52 | 35.60773 | -67.14405 | 39246 ft | 516 kts | 60° |
| 2026-05-05 22:52 | 35.64350 | -67.06748 | 39254 ft | 516 kts | 61° |
| 2026-05-05 22:53 | 35.67903 | -66.99078 | 39250 ft | 516 kts | 61° |
| 2026-05-05 22:53 | 35.71473 | -66.91402 | 39252 ft | 517 kts | 61° |
| 2026-05-05 22:54 | 35.75024 | -66.83703 | 39253 ft | 517 kts | 61° |
| 2026-05-05 22:54 | 35.78563 | -66.76053 | 39255 ft | 518 kts | 61° |
| 2026-05-05 22:55 | 35.82118 | -66.68319 | 39254 ft | 519 kts | 61° |
| 2026-05-05 22:55 | 35.85677 | -66.60581 | 39253 ft | 519 kts | 62° |
| 2026-05-05 22:56 | 35.89234 | -66.52820 | 39256 ft | 519 kts | 61° |
| 2026-05-05 22:56 | 35.92785 | -66.45048 | 39250 ft | 520 kts | 62° |
| 2026-05-05 22:57 | 35.96341 | -66.37268 | 39254 ft | 521 kts | 61° |
| 2026-05-05 22:57 | 35.99886 | -66.29460 | 39259 ft | 521 kts | 62° |
| 2026-05-05 22:58 | 36.03451 | -66.21639 | 39259 ft | 522 kts | 62° |
| 2026-05-05 22:58 | 36.06966 | -66.13847 | 39254 ft | 522 kts | 62° |
| 2026-05-05 22:59 | 36.10523 | -66.06016 | 39260 ft | 522 kts | 62° |
| 2026-05-05 22:59 | 36.14050 | -65.98155 | 39260 ft | 523 kts | 62° |
| 2026-05-05 23:00 | 36.19361 | -65.86360 | 39256 ft | 523 kts | 62° |
| 2026-05-05 23:00 | 36.22899 | -65.78481 | 39257 ft | 523 kts | 62° |
| 2026-05-05 23:01 | 36.26423 | -65.70581 | 39261 ft | 524 kts | 63° |
| 2026-05-05 23:01 | 36.29961 | -65.62680 | 39256 ft | 524 kts | 62° |
| 2026-05-05 23:02 | 36.33478 | -65.54745 | 39259 ft | 524 kts | 63° |
| 2026-05-05 23:02 | 36.36986 | -65.46887 | 39264 ft | 524 kts | 62° |
| 2026-05-05 23:03 | 36.40484 | -65.38946 | 39260 ft | 525 kts | 63° |
| 2026-05-05 23:03 | 36.44014 | -65.31007 | 39264 ft | 525 kts | 63° |
| 2026-05-05 23:04 | 36.47505 | -65.23038 | 39264 ft | 525 kts | 63° |
| 2026-05-05 23:04 | 36.51031 | -65.15074 | 39267 ft | 526 kts | 63° |
| 2026-05-05 23:05 | 36.54518 | -65.07072 | 39268 ft | 526 kts | 63° |
| 2026-05-05 23:05 | 36.57450 | -65.00430 | 39267 ft | 527 kts | 63° |
| 2026-05-05 23:06 | 36.61504 | -64.91095 | 39275 ft | 528 kts | 63° |
| 2026-05-05 23:06 | 36.65021 | -64.83069 | 39275 ft | 528 kts | 63° |
| 2026-05-05 23:07 | 36.67936 | -64.76310 | 39276 ft | 528 kts | 63° |
| 2026-05-05 23:07 | 36.71427 | -64.68317 | 39277 ft | 529 kts | 64° |
| 2026-05-05 23:08 | 36.74900 | -64.60234 | 39280 ft | 529 kts | 63° |
| 2026-05-05 23:08 | 36.78406 | -64.52160 | 39277 ft | 530 kts | 64° |
| 2026-05-05 23:09 | 36.81881 | -64.44038 | 39283 ft | 530 kts | 63° |
| 2026-05-05 23:09 | 36.85380 | -64.35932 | 39281 ft | 530 kts | 64° |
| 2026-05-05 23:10 | 36.88846 | -64.27800 | 39281 ft | 531 kts | 63° |
| 2026-05-05 23:10 | 36.92339 | -64.19658 | 39287 ft | 531 kts | 64° |
| 2026-05-05 23:11 | 36.95807 | -64.11490 | 39287 ft | 532 kts | 64° |
| 2026-05-05 23:11 | 36.99292 | -64.03315 | 39287 ft | 533 kts | 64° |
| 2026-05-05 23:12 | 37.02742 | -63.95161 | 39290 ft | 533 kts | 64° |
| 2026-05-05 23:12 | 37.06219 | -63.86952 | 39300 ft | 533 kts | 64° |
| 2026-05-05 23:13 | 37.09686 | -63.78726 | 39292 ft | 534 kts | 64° |
| 2026-05-05 23:13 | 37.13152 | -63.70486 | 39288 ft | 534 kts | 64° |
| 2026-05-05 23:14 | 37.16614 | -63.62248 | 39293 ft | 535 kts | 64° |
| 2026-05-05 23:14 | 37.20067 | -63.53981 | 39294 ft | 535 kts | 65° |
| 2026-05-05 23:15 | 37.23515 | -63.45748 | 39290 ft | 536 kts | 64° |
| 2026-05-05 23:15 | 37.26956 | -63.37456 | 39292 ft | 536 kts | 65° |
| 2026-05-05 23:16 | 37.30424 | -63.29141 | 39296 ft | 536 kts | 64° |
| 2026-05-05 23:16 | 37.33854 | -63.20822 | 39298 ft | 537 kts | 65° |
| 2026-05-05 23:17 | 37.37312 | -63.12499 | 39293 ft | 537 kts | 64° |
| 2026-05-05 23:17 | 37.40735 | -63.04147 | 39297 ft | 537 kts | 65° |
| 2026-05-05 23:18 | 37.44189 | -62.95792 | 39297 ft | 538 kts | 65° |
| 2026-05-05 23:18 | 37.47582 | -62.87465 | 39300 ft | 538 kts | 65° |
| 2026-05-05 23:19 | 37.51029 | -62.79088 | 39302 ft | 539 kts | 65° |
| 2026-05-05 23:19 | 37.54438 | -62.70675 | 39299 ft | 538 kts | 65° |
| 2026-05-05 23:20 | 37.57873 | -62.62287 | 39286 ft | 539 kts | 65° |
| 2026-05-05 23:20 | 37.61268 | -62.53857 | 39287 ft | 539 kts | 65° |
| 2026-05-05 23:21 | 37.64693 | -62.45450 | 39299 ft | 539 kts | 65° |
| 2026-05-05 23:21 | 37.68079 | -62.37001 | 39280 ft | 539 kts | 65° |
| 2026-05-05 23:22 | 37.71499 | -62.28560 | 39291 ft | 539 kts | 65° |
| 2026-05-05 23:22 | 37.74852 | -62.20145 | 39300 ft | 540 kts | 65° |
| 2026-05-05 23:23 | 37.78264 | -62.11681 | 39295 ft | 540 kts | 66° |
| 2026-05-05 23:23 | 37.81632 | -62.03186 | 39299 ft | 540 kts | 65° |
| 2026-05-05 23:24 | 37.85031 | -61.94701 | 39301 ft | 540 kts | 66° |
| 2026-05-05 23:24 | 37.88396 | -61.86178 | 39305 ft | 541 kts | 65° |
| 2026-05-05 23:25 | 37.91781 | -61.77668 | 39307 ft | 541 kts | 66° |
| 2026-05-05 23:25 | 37.95141 | -61.69124 | 39311 ft | 542 kts | 65° |
| 2026-05-05 23:26 | 37.98512 | -61.60591 | 39312 ft | 541 kts | 66° |
| 2026-05-05 23:26 | 38.01860 | -61.52039 | 39311 ft | 542 kts | 65° |
| 2026-05-05 23:27 | 38.05203 | -61.43525 | 39306 ft | 543 kts | 66° |
| 2026-05-05 23:27 | 38.08552 | -61.34932 | 39318 ft | 543 kts | 65° |
| 2026-05-05 23:28 | 38.11905 | -61.26330 | 39318 ft | 543 kts | 66° |
| 2026-05-05 23:28 | 38.15252 | -61.17710 | 39313 ft | 544 kts | 65° |
| 2026-05-05 23:29 | 38.18590 | -61.09084 | 39315 ft | 543 kts | 66° |
| 2026-05-05 23:29 | 38.21930 | -61.00446 | 39318 ft | 544 kts | 66° |
| 2026-05-05 23:30 | 38.25236 | -60.91845 | 39320 ft | 545 kts | 66° |
| 2026-05-05 23:30 | 38.28570 | -60.83181 | 39330 ft | 545 kts | 66° |
| 2026-05-05 23:31 | 38.31888 | -60.74493 | 39336 ft | 545 kts | 66° |
| 2026-05-05 23:31 | 38.35215 | -60.65806 | 39332 ft | 546 kts | 66° |
| 2026-05-05 23:32 | 38.38520 | -60.57093 | 39333 ft | 546 kts | 66° |
| 2026-05-05 23:32 | 38.41845 | -60.48373 | 39333 ft | 547 kts | 66° |
| 2026-05-05 23:33 | 38.45138 | -60.39629 | 39336 ft | 547 kts | 66° |
| 2026-05-05 23:33 | 38.48435 | -60.30943 | 39339 ft | 547 kts | 66° |
| 2026-05-05 23:34 | 38.52151 | -60.22466 | 39338 ft | 549 kts | 57° |
| 2026-05-05 23:34 | 38.56422 | -60.14373 | 39345 ft | 549 kts | 58° |
| 2026-05-05 23:35 | 38.60531 | -60.06133 | 39346 ft | 550 kts | 57° |
| 2026-05-05 23:35 | 38.64796 | -59.98000 | 39345 ft | 550 kts | 58° |
| 2026-05-05 23:36 | 38.68901 | -59.89733 | 39349 ft | 550 kts | 57° |
| 2026-05-05 23:36 | 38.73148 | -59.81583 | 39352 ft | 550 kts | 58° |
| 2026-05-05 23:37 | 38.77247 | -59.73297 | 39358 ft | 551 kts | 57° |
| 2026-05-05 23:37 | 38.81465 | -59.65155 | 39354 ft | 551 kts | 58° |
| 2026-05-05 23:38 | 38.85560 | -59.56844 | 39359 ft | 551 kts | 57° |
| 2026-05-05 23:38 | 38.89785 | -59.48633 | 39355 ft | 551 kts | 58° |
| 2026-05-05 23:39 | 38.93879 | -59.40294 | 39354 ft | 552 kts | 57° |
| 2026-05-05 23:39 | 38.98090 | -59.32057 | 39360 ft | 552 kts | 58° |
| 2026-05-05 23:40 | 39.02179 | -59.23695 | 39358 ft | 552 kts | 58° |
| 2026-05-05 23:40 | 39.06380 | -59.15425 | 39358 ft | 552 kts | 58° |
| 2026-05-05 23:41 | 39.10435 | -59.07100 | 39362 ft | 552 kts | 58° |
| 2026-05-05 23:41 | 39.14626 | -58.98795 | 39365 ft | 553 kts | 58° |
| 2026-05-05 23:42 | 39.18706 | -58.90386 | 39365 ft | 553 kts | 58° |
| 2026-05-05 23:42 | 39.22889 | -58.82044 | 39371 ft | 553 kts | 58° |
| 2026-05-05 23:43 | 39.26963 | -58.73612 | 39369 ft | 554 kts | 58° |
| 2026-05-05 23:43 | 39.31128 | -58.65255 | 39367 ft | 554 kts | 58° |
| 2026-05-05 23:44 | 39.35197 | -58.56796 | 39377 ft | 554 kts | 58° |
| 2026-05-05 23:44 | 39.39332 | -58.48448 | 39374 ft | 555 kts | 58° |
| 2026-05-05 23:45 | 39.43399 | -58.39956 | 39381 ft | 556 kts | 58° |
| 2026-05-05 23:45 | 39.47552 | -58.31519 | 39374 ft | 556 kts | 58° |
| 2026-05-05 23:46 | 39.51620 | -58.22984 | 39378 ft | 556 kts | 58° |
| 2026-05-05 23:46 | 39.55765 | -58.14516 | 39380 ft | 556 kts | 58° |
| 2026-05-05 23:47 | 39.59818 | -58.05969 | 39380 ft | 556 kts | 58° |
| 2026-05-05 23:47 | 39.63950 | -57.97480 | 39378 ft | 557 kts | 58° |
| 2026-05-05 23:48 | 39.67992 | -57.88911 | 39382 ft | 557 kts | 58° |
| 2026-05-05 23:48 | 39.72115 | -57.80391 | 39384 ft | 557 kts | 58° |
| 2026-05-05 23:49 | 39.76128 | -57.71842 | 39384 ft | 557 kts | 58° |
| 2026-05-05 23:49 | 39.80235 | -57.63305 | 39380 ft | 557 kts | 58° |
| 2026-05-05 23:50 | 39.84265 | -57.54676 | 39387 ft | 557 kts | 58° |
| 2026-05-05 23:50 | 39.88366 | -57.46101 | 39384 ft | 558 kts | 58° |
| 2026-05-05 23:51 | 39.92384 | -57.37453 | 39390 ft | 558 kts | 58° |
| 2026-05-05 23:51 | 39.96473 | -57.28855 | 39390 ft | 558 kts | 58° |
| 2026-05-05 23:52 | 40.00460 | -57.20228 | 39373 ft | 558 kts | 58° |
| 2026-05-05 23:52 | 40.04539 | -57.11601 | 39380 ft | 559 kts | 58° |
| 2026-05-05 23:53 | 40.08542 | -57.02891 | 39384 ft | 559 kts | 58° |
| 2026-05-05 23:53 | 40.12613 | -56.94233 | 39381 ft | 559 kts | 58° |
| 2026-05-05 23:54 | 40.16602 | -56.85506 | 39386 ft | 559 kts | 58° |
| 2026-05-05 23:54 | 40.19980 | -56.78288 | 39382 ft | 559 kts | 57° |
| 2026-05-05 23:55 | 40.24640 | -56.68071 | 39386 ft | 560 kts | 58° |
| 2026-05-05 23:55 | 40.28003 | -56.60844 | 39388 ft | 559 kts | 57° |
| 2026-05-05 23:56 | 40.31974 | -56.52091 | 39391 ft | 559 kts | 58° |
| 2026-05-05 23:56 | 40.35994 | -56.43373 | 39409 ft | 559 kts | 57° |
| 2026-05-05 23:57 | 40.39952 | -56.34596 | 39394 ft | 558 kts | 58° |
| 2026-05-05 23:57 | 40.43958 | -56.25861 | 39407 ft | 558 kts | 57° |
| 2026-05-05 23:58 | 40.47902 | -56.17064 | 39399 ft | 559 kts | 58° |
| 2026-05-05 23:58 | 40.51898 | -56.08302 | 39401 ft | 559 kts | 57° |
| 2026-05-05 23:59 | 40.55830 | -55.99480 | 39403 ft | 559 kts | 58° |
| 2026-05-05 23:59 | 40.59811 | -55.90704 | 39407 ft | 558 kts | 57° |
| 2026-05-06 00:00 | 40.63725 | -55.81867 | 39401 ft | 559 kts | 58° |
| 2026-05-06 00:00 | 40.67700 | -55.73055 | 39407 ft | 560 kts | 57° |
| 2026-05-06 00:01 | 40.71585 | -55.64234 | 39410 ft | 561 kts | 58° |
| 2026-05-06 00:01 | 40.75554 | -55.55383 | 39401 ft | 559 kts | 57° |
| 2026-05-06 00:02 | 40.79442 | -55.46503 | 39407 ft | 558 kts | 57° |
| 2026-05-06 00:02 | 40.83380 | -55.37674 | 39404 ft | 558 kts | 57° |
| 2026-05-06 00:03 | 40.87248 | -55.28783 | 39409 ft | 558 kts | 57° |
| 2026-05-06 00:03 | 40.91177 | -55.19927 | 39408 ft | 558 kts | 57° |
| 2026-05-06 00:04 | 40.95028 | -55.11020 | 39407 ft | 558 kts | 57° |
| 2026-05-06 00:04 | 40.98914 | -55.02212 | 39409 ft | 557 kts | 57° |
| 2026-05-06 00:05 | 41.04685 | -54.88859 | 39407 ft | 556 kts | 57° |
| 2026-05-06 00:06 | 41.08547 | -54.79976 | 39411 ft | 557 kts | 58° |
| 2026-05-06 00:06 | 41.12382 | -54.71055 | 39408 ft | 556 kts | 57° |
| 2026-05-06 00:07 | 41.16227 | -54.62155 | 39415 ft | 556 kts | 58° |
| 2026-05-06 00:07 | 41.20040 | -54.53239 | 39408 ft | 555 kts | 57° |
| 2026-05-06 00:08 | 41.23858 | -54.44340 | 39416 ft | 555 kts | 58° |
| 2026-05-06 00:08 | 41.27652 | -54.35421 | 39416 ft | 553 kts | 57° |
| 2026-05-06 00:09 | 41.31450 | -54.26512 | 39420 ft | 553 kts | 58° |
| 2026-05-06 00:09 | 41.35221 | -54.17602 | 39415 ft | 552 kts | 57° |
| 2026-05-06 00:10 | 41.38992 | -54.08693 | 39419 ft | 552 kts | 58° |
| 2026-05-06 00:10 | 41.42726 | -53.99827 | 39404 ft | 552 kts | 57° |
| 2026-05-06 00:11 | 41.46472 | -53.90917 | 39412 ft | 550 kts | 58° |
| 2026-05-06 00:11 | 41.50205 | -53.82008 | 39414 ft | 550 kts | 57° |
| 2026-05-06 00:12 | 41.53927 | -53.73094 | 39418 ft | 550 kts | 58° |
| 2026-05-06 00:12 | 41.57646 | -53.64170 | 39421 ft | 549 kts | 57° |
| 2026-05-06 00:13 | 41.61350 | -53.55241 | 39420 ft | 549 kts | 58° |
| 2026-05-06 00:13 | 41.65043 | -53.46332 | 39420 ft | 548 kts | 57° |
| 2026-05-06 00:14 | 41.68721 | -53.37406 | 39428 ft | 548 kts | 58° |
| 2026-05-06 00:14 | 41.72376 | -53.28544 | 39427 ft | 547 kts | 57° |
| 2026-05-06 00:15 | 41.76031 | -53.19610 | 39430 ft | 547 kts | 58° |
| 2026-05-06 00:15 | 41.79693 | -53.10685 | 39432 ft | 546 kts | 57° |
| 2026-05-06 00:16 | 41.83325 | -53.01744 | 39430 ft | 546 kts | 58° |
| 2026-05-06 00:16 | 41.86967 | -52.92825 | 39436 ft | 545 kts | 57° |
| 2026-05-06 00:17 | 41.90574 | -52.83883 | 39438 ft | 544 kts | 58° |
| 2026-05-06 00:17 | 41.94194 | -52.74971 | 39434 ft | 543 kts | 57° |
| 2026-05-06 00:18 | 41.97767 | -52.66048 | 39434 ft | 542 kts | 58° |
| 2026-05-06 00:18 | 42.01342 | -52.57203 | 39427 ft | 541 kts | 58° |
| 2026-05-06 00:19 | 42.04889 | -52.48286 | 39434 ft | 540 kts | 58° |
| 2026-05-06 00:19 | 42.08463 | -52.39395 | 39436 ft | 540 kts | 58° |
| 2026-05-06 00:20 | 42.11990 | -52.30466 | 39431 ft | 540 kts | 58° |
| 2026-05-06 00:20 | 42.15548 | -52.21567 | 39437 ft | 539 kts | 58° |
| 2026-05-06 00:21 | 42.19058 | -52.12620 | 39439 ft | 540 kts | 58° |
| 2026-05-06 00:21 | 42.22608 | -52.03695 | 39434 ft | 540 kts | 58° |
| 2026-05-06 00:22 | 42.26100 | -51.94730 | 39440 ft | 540 kts | 58° |
| 2026-05-06 00:22 | 42.29640 | -51.85779 | 39436 ft | 539 kts | 58° |
| 2026-05-06 00:23 | 42.33116 | -51.76796 | 39435 ft | 539 kts | 58° |
| 2026-05-06 00:23 | 42.36636 | -51.67845 | 39446 ft | 539 kts | 58° |
| 2026-05-06 00:24 | 42.40096 | -51.58846 | 39443 ft | 539 kts | 59° |
| 2026-05-06 00:24 | 42.43579 | -51.49934 | 39434 ft | 539 kts | 59° |
| 2026-05-06 00:25 | 42.47028 | -51.40906 | 39431 ft | 539 kts | 59° |
| 2026-05-06 00:25 | 42.50518 | -51.31920 | 39439 ft | 539 kts | 59° |
| 2026-05-06 00:26 | 42.53943 | -51.22899 | 39442 ft | 538 kts | 59° |
| 2026-05-06 00:26 | 42.57417 | -51.13894 | 39443 ft | 539 kts | 59° |
| 2026-05-06 00:27 | 42.60832 | -51.04850 | 39444 ft | 538 kts | 59° |
| 2026-05-06 00:27 | 42.64289 | -50.95825 | 39445 ft | 538 kts | 59° |
| 2026-05-06 00:28 | 42.67676 | -50.86804 | 39439 ft | 538 kts | 59° |
| 2026-05-06 00:28 | 42.71108 | -50.77782 | 39425 ft | 538 kts | 59° |
| 2026-05-06 00:29 | 42.74493 | -50.68718 | 39425 ft | 537 kts | 59° |
| 2026-05-06 00:29 | 42.77905 | -50.59677 | 39440 ft | 537 kts | 60° |
| 2026-05-06 00:30 | 42.81275 | -50.50609 | 39444 ft | 536 kts | 59° |
| 2026-05-06 00:30 | 42.84666 | -50.41552 | 39440 ft | 537 kts | 60° |
| 2026-05-06 00:31 | 42.88028 | -50.32462 | 39435 ft | 536 kts | 59° |
| 2026-05-06 00:31 | 42.91399 | -50.23389 | 39430 ft | 536 kts | 60° |
| 2026-05-06 00:32 | 42.94723 | -50.14353 | 39439 ft | 535 kts | 59° |
| 2026-05-06 00:32 | 42.98072 | -50.05269 | 39435 ft | 535 kts | 60° |
| 2026-05-06 00:33 | 43.01397 | -49.96172 | 39432 ft | 535 kts | 60° |
| 2026-05-06 00:33 | 43.04660 | -49.87031 | 39440 ft | 535 kts | 61° |
| 2026-05-06 00:34 | 43.07955 | -49.77913 | 39440 ft | 534 kts | 60° |
| 2026-05-06 00:34 | 43.11201 | -49.68763 | 39444 ft | 535 kts | 61° |
| 2026-05-06 00:35 | 43.14480 | -49.59633 | 39437 ft | 534 kts | 60° |
| 2026-05-06 00:35 | 43.17706 | -49.50474 | 39430 ft | 534 kts | 61° |
| 2026-05-06 00:36 | 43.20966 | -49.41343 | 39434 ft | 533 kts | 60° |
| 2026-05-06 00:36 | 43.24151 | -49.32234 | 39442 ft | 532 kts | 61° |
| 2026-05-06 00:37 | 43.27394 | -49.23100 | 39441 ft | 532 kts | 61° |
| 2026-05-06 00:37 | 43.30576 | -49.13930 | 39433 ft | 532 kts | 61° |
| 2026-05-06 00:38 | 43.33798 | -49.04797 | 39430 ft | 531 kts | 61° |
| 2026-05-06 00:38 | 43.36960 | -48.95623 | 39433 ft | 531 kts | 62° |
| 2026-05-06 00:39 | 43.40165 | -48.86480 | 39441 ft | 530 kts | 61° |
| 2026-05-06 00:39 | 43.43306 | -48.77303 | 39433 ft | 530 kts | 62° |
| 2026-05-06 00:40 | 43.46491 | -48.68158 | 39432 ft | 529 kts | 62° |
| 2026-05-06 00:40 | 43.49608 | -48.58986 | 39431 ft | 529 kts | 62° |
| 2026-05-06 00:41 | 43.52747 | -48.49917 | 39435 ft | 528 kts | 62° |
| 2026-05-06 00:41 | 43.55850 | -48.40723 | 39440 ft | 528 kts | 62° |
| 2026-05-06 00:42 | 43.58997 | -48.31568 | 39427 ft | 528 kts | 62° |
| 2026-05-06 00:42 | 43.62085 | -48.22360 | 39419 ft | 528 kts | 62° |
| 2026-05-06 00:43 | 43.65211 | -48.13197 | 39436 ft | 528 kts | 62° |
| 2026-05-06 00:43 | 43.67759 | -48.05538 | 39433 ft | 528 kts | 62° |
| 2026-05-06 00:44 | 43.71372 | -47.94857 | 39424 ft | 528 kts | 63° |
| 2026-05-06 00:44 | 43.74431 | -47.85631 | 39437 ft | 527 kts | 62° |
| 2026-05-06 00:45 | 43.77025 | -47.77927 | 39432 ft | 527 kts | 63° |
| 2026-05-06 00:45 | 43.80047 | -47.68744 | 39431 ft | 527 kts | 63° |
| 2026-05-06 00:46 | 43.83129 | -47.59518 | 39423 ft | 527 kts | 63° |
| 2026-05-06 00:46 | 43.86157 | -47.50263 | 39429 ft | 527 kts | 63° |
| 2026-05-06 00:47 | 43.89214 | -47.41034 | 39430 ft | 526 kts | 63° |
| 2026-05-06 00:47 | 43.92232 | -47.31765 | 39433 ft | 526 kts | 63° |
| 2026-05-06 00:48 | 43.95249 | -47.22576 | 39432 ft | 527 kts | 64° |
| 2026-05-06 00:48 | 43.98253 | -47.13300 | 39429 ft | 527 kts | 63° |
| 2026-05-06 00:49 | 44.01271 | -47.04024 | 39426 ft | 527 kts | 64° |
| 2026-05-06 00:49 | 44.04264 | -46.94742 | 39417 ft | 526 kts | 63° |
| 2026-05-06 00:50 | 44.07258 | -46.85452 | 39411 ft | 527 kts | 64° |
| 2026-05-06 00:50 | 44.10244 | -46.76142 | 39425 ft | 526 kts | 63° |
| 2026-05-06 00:51 | 44.13219 | -46.66831 | 39425 ft | 526 kts | 64° |
| 2026-05-06 00:51 | 44.16195 | -46.57506 | 39420 ft | 526 kts | 64° |
| 2026-05-06 00:52 | 44.19133 | -46.48222 | 39416 ft | 526 kts | 64° |
| 2026-05-06 00:52 | 44.22096 | -46.38893 | 39420 ft | 527 kts | 64° |
| 2026-05-06 00:53 | 44.25032 | -46.29530 | 39423 ft | 527 kts | 64° |
| 2026-05-06 00:53 | 44.27988 | -46.20173 | 39422 ft | 527 kts | 64° |
| 2026-05-06 00:54 | 44.30909 | -46.10773 | 39414 ft | 527 kts | 65° |
| 2026-05-06 00:54 | 44.33858 | -46.01384 | 39412 ft | 528 kts | 64° |
| 2026-05-06 00:55 | 44.36744 | -45.92019 | 39407 ft | 527 kts | 65° |
| 2026-05-06 00:55 | 44.39676 | -45.82627 | 39413 ft | 527 kts | 65° |
| 2026-05-06 00:56 | 44.42560 | -45.73194 | 39417 ft | 527 kts | 65° |
| 2026-05-06 00:56 | 44.45480 | -45.63771 | 39412 ft | 528 kts | 65° |
| 2026-05-06 00:57 | 44.48356 | -45.54296 | 39409 ft | 529 kts | 65° |
| 2026-05-06 00:57 | 44.51266 | -45.44833 | 39403 ft | 530 kts | 65° |
| 2026-05-06 00:58 | 44.54131 | -45.35328 | 39403 ft | 530 kts | 65° |
| 2026-05-06 00:58 | 44.57030 | -45.25826 | 39407 ft | 531 kts | 65° |
| 2026-05-06 00:59 | 44.59874 | -45.16329 | 39411 ft | 530 kts | 65° |
| 2026-05-06 00:59 | 44.62760 | -45.06789 | 39411 ft | 531 kts | 66° |
| 2026-05-06 01:00 | 44.65608 | -44.97216 | 39400 ft | 531 kts | 65° |
| 2026-05-06 01:00 | 44.68477 | -44.87646 | 39394 ft | 532 kts | 66° |
| 2026-05-06 01:01 | 44.71307 | -44.78039 | 39410 ft | 532 kts | 64° |
| 2026-05-06 01:01 | 44.74197 | -44.68444 | 39411 ft | 533 kts | 67° |
| 2026-05-06 01:02 | 44.76982 | -44.58770 | 39399 ft | 532 kts | 65° |
| 2026-05-06 01:02 | 44.79871 | -44.49168 | 39400 ft | 533 kts | 67° |
| 2026-05-06 01:03 | 44.82636 | -44.39486 | 39390 ft | 533 kts | 65° |
| 2026-05-06 01:03 | 44.85506 | -44.29867 | 39389 ft | 533 kts | 67° |
| 2026-05-06 01:04 | 44.88255 | -44.20175 | 39396 ft | 532 kts | 65° |
| 2026-05-06 01:04 | 44.91085 | -44.10609 | 39400 ft | 532 kts | 67° |
| 2026-05-06 01:05 | 44.93821 | -44.00900 | 39396 ft | 532 kts | 65° |
| 2026-05-06 01:05 | 44.96819 | -43.90636 | 39392 ft | 533 kts | 67° |
| 2026-05-06 01:06 | 44.99553 | -43.80909 | 39389 ft | 533 kts | 66° |
| 2026-05-06 01:06 | 45.02358 | -43.71208 | 39392 ft | 533 kts | 67° |
| 2026-05-06 01:07 | 45.05079 | -43.61463 | 39385 ft | 533 kts | 66° |
| 2026-05-06 01:07 | 45.07863 | -43.51746 | 39392 ft | 533 kts | 67° |
| 2026-05-06 01:08 | 45.10575 | -43.41974 | 39384 ft | 533 kts | 66° |
| 2026-05-06 01:08 | 45.13339 | -43.32226 | 39370 ft | 533 kts | 67° |
| 2026-05-06 01:09 | 45.16036 | -43.22450 | 39368 ft | 533 kts | 66° |
| 2026-05-06 01:09 | 45.18779 | -43.12683 | 39371 ft | 533 kts | 67° |
| 2026-05-06 01:10 | 45.21445 | -43.02959 | 39375 ft | 532 kts | 66° |
| 2026-05-06 01:10 | 45.24163 | -42.93185 | 39369 ft | 533 kts | 68° |
| 2026-05-06 01:11 | 45.26836 | -42.83372 | 39368 ft | 533 kts | 66° |
| 2026-05-06 01:11 | 45.29536 | -42.73568 | 39373 ft | 533 kts | 68° |
| 2026-05-06 01:12 | 45.32199 | -42.63730 | 39373 ft | 533 kts | 67° |
| 2026-05-06 01:12 | 45.34877 | -42.53907 | 39375 ft | 533 kts | 68° |
| 2026-05-06 01:13 | 45.37528 | -42.44055 | 39368 ft | 533 kts | 67° |
| 2026-05-06 01:13 | 45.39744 | -42.35878 | 39368 ft | 533 kts | 68° |
| 2026-05-06 01:14 | 45.44141 | -42.19472 | 39359 ft | 533 kts | 68° |
| 2026-05-06 01:14 | 45.46744 | -42.09580 | 39357 ft | 533 kts | 68° |
| 2026-05-06 01:15 | 45.48962 | -42.01323 | 39371 ft | 533 kts | 68° |
| 2026-05-06 01:15 | 45.51537 | -41.91473 | 39364 ft | 533 kts | 68° |
| 2026-05-06 01:16 | 45.54165 | -41.81587 | 39359 ft | 533 kts | 68° |
| 2026-05-06 01:16 | 45.56739 | -41.71663 | 39354 ft | 533 kts | 68° |
| 2026-05-06 01:17 | 45.59351 | -41.61751 | 39363 ft | 533 kts | 68° |
| 2026-05-06 01:17 | 45.61906 | -41.51814 | 39366 ft | 533 kts | 68° |
| 2026-05-06 01:18 | 45.64503 | -41.41875 | 39357 ft | 533 kts | 69° |
| 2026-05-06 01:18 | 45.67028 | -41.31971 | 39353 ft | 533 kts | 68° |
| 2026-05-06 01:19 | 45.69606 | -41.22017 | 39354 ft | 534 kts | 69° |
| 2026-05-06 01:19 | 45.72131 | -41.12035 | 39357 ft | 534 kts | 69° |
| 2026-05-06 01:20 | 45.74689 | -41.02060 | 39360 ft | 533 kts | 69° |
| 2026-05-06 01:20 | 45.77201 | -40.92063 | 39361 ft | 533 kts | 69° |
| 2026-05-06 01:21 | 45.79736 | -40.82077 | 39349 ft | 533 kts | 69° |
| 2026-05-06 01:21 | 45.82231 | -40.72069 | 39348 ft | 533 kts | 69° |
| 2026-05-06 01:22 | 45.84744 | -40.62065 | 39355 ft | 533 kts | 69° |
| 2026-05-06 01:22 | 45.87227 | -40.52042 | 39356 ft | 533 kts | 69° |
| 2026-05-06 01:23 | 45.89719 | -40.42013 | 39352 ft | 533 kts | 70° |
| 2026-05-06 01:23 | 45.92192 | -40.31964 | 39344 ft | 533 kts | 69° |
| 2026-05-06 01:24 | 45.94660 | -40.21920 | 39349 ft | 534 kts | 70° |
| 2026-05-06 01:24 | 45.97103 | -40.11924 | 39351 ft | 533 kts | 69° |
| 2026-05-06 01:25 | 45.99551 | -40.01850 | 39348 ft | 533 kts | 70° |
| 2026-05-06 01:25 | 46.02047 | -39.91808 | 39347 ft | 533 kts | 68° |
| 2026-05-06 01:26 | 46.04599 | -39.81779 | 39340 ft | 534 kts | 70° |
| 2026-05-06 01:26 | 46.07080 | -39.71715 | 39349 ft | 533 kts | 68° |
| 2026-05-06 01:27 | 46.09610 | -39.61667 | 39345 ft | 534 kts | 70° |
| 2026-05-06 01:27 | 46.12063 | -39.51642 | 39348 ft | 533 kts | 69° |
| 2026-05-06 01:28 | 46.14577 | -39.41558 | 39348 ft | 533 kts | 70° |
| 2026-05-06 01:28 | 46.17027 | -39.31465 | 39346 ft | 533 kts | 69° |
| 2026-05-06 01:29 | 46.19515 | -39.21378 | 39340 ft | 533 kts | 70° |
| 2026-05-06 01:29 | 46.21954 | -39.11264 | 39332 ft | 533 kts | 69° |
| 2026-05-06 01:30 | 46.24421 | -39.01154 | 39330 ft | 534 kts | 70° |
| 2026-05-06 01:30 | 46.26827 | -38.91097 | 39329 ft | 533 kts | 69° |
| 2026-05-06 01:31 | 46.29269 | -38.80984 | 39333 ft | 533 kts | 70° |
| 2026-05-06 01:31 | 46.31682 | -38.70822 | 39331 ft | 534 kts | 70° |
| 2026-05-06 01:32 | 46.34105 | -38.60679 | 39336 ft | 534 kts | 71° |
| 2026-05-06 01:32 | 46.36503 | -38.50509 | 39328 ft | 534 kts | 70° |
| 2026-05-06 01:33 | 46.38907 | -38.40326 | 39331 ft | 534 kts | 71° |
| 2026-05-06 01:33 | 46.41295 | -38.30127 | 39325 ft | 534 kts | 70° |
| 2026-05-06 01:34 | 46.43676 | -38.19928 | 39322 ft | 534 kts | 71° |
| 2026-05-06 01:34 | 46.46031 | -38.09790 | 39324 ft | 533 kts | 70° |
| 2026-05-06 01:35 | 46.48386 | -37.99594 | 39320 ft | 533 kts | 71° |
| 2026-05-06 01:35 | 46.50739 | -37.89387 | 39325 ft | 533 kts | 70° |
| 2026-05-06 01:36 | 46.53069 | -37.79180 | 39321 ft | 533 kts | 71° |
| 2026-05-06 01:36 | 46.55409 | -37.68956 | 39315 ft | 533 kts | 70° |
| 2026-05-06 01:37 | 46.57719 | -37.58723 | 39308 ft | 533 kts | 71° |
| 2026-05-06 01:37 | 46.60042 | -37.48487 | 39310 ft | 533 kts | 71° |
| 2026-05-06 01:38 | 46.62335 | -37.38219 | 39308 ft | 534 kts | 71° |
| 2026-05-06 01:38 | 46.64648 | -37.27942 | 39303 ft | 533 kts | 71° |
| 2026-05-06 01:39 | 46.66904 | -37.17727 | 39300 ft | 533 kts | 71° |
| 2026-05-06 01:39 | 46.69197 | -37.07456 | 39303 ft | 533 kts | 71° |
| 2026-05-06 01:40 | 46.71445 | -36.97161 | 39302 ft | 533 kts | 71° |
| 2026-05-06 01:40 | 46.73719 | -36.86879 | 39305 ft | 533 kts | 71° |
| 2026-05-06 01:41 | 46.75948 | -36.76571 | 39298 ft | 533 kts | 72° |
| 2026-05-06 01:41 | 46.78205 | -36.66272 | 39289 ft | 533 kts | 71° |
| 2026-05-06 01:42 | 46.80414 | -36.55943 | 39301 ft | 533 kts | 72° |
| 2026-05-06 01:42 | 46.82641 | -36.45682 | 39292 ft | 533 kts | 72° |
| 2026-05-06 01:43 | 46.84832 | -36.35342 | 39281 ft | 533 kts | 72° |
| 2026-05-06 01:43 | 46.87050 | -36.25014 | 39288 ft | 532 kts | 72° |
| 2026-05-06 01:44 | 46.89222 | -36.14659 | 39281 ft | 533 kts | 72° |
| 2026-05-06 01:44 | 46.91419 | -36.04318 | 39285 ft | 533 kts | 72° |
| 2026-05-06 01:45 | 46.93577 | -35.93943 | 39280 ft | 533 kts | 72° |
| 2026-05-06 01:45 | 46.95739 | -35.83644 | 39276 ft | 533 kts | 72° |
| 2026-05-06 01:46 | 46.97881 | -35.73253 | 39271 ft | 533 kts | 72° |
| 2026-05-06 01:46 | 47.00038 | -35.62854 | 39277 ft | 534 kts | 72° |
| 2026-05-06 01:47 | 47.02170 | -35.52430 | 39281 ft | 533 kts | 72° |
| 2026-05-06 01:47 | 47.04302 | -35.42016 | 39275 ft | 533 kts | 73° |
| 2026-05-06 01:48 | 47.06405 | -35.31647 | 39271 ft | 533 kts | 72° |
| 2026-05-06 01:48 | 47.08516 | -35.21205 | 39264 ft | 533 kts | 73° |
| 2026-05-06 01:49 | 47.10618 | -35.10762 | 39262 ft | 533 kts | 72° |